sensor_id;sensor_type;location;lat;lon;timestamp;P1;durP1;ratioP1;P2;durP2;ratioP2
8007;SDS011;4049;49.468;11.200;2023-02-11T00:00:52;37.23;;;17.10;;
8007;SDS011;4049;49.468;11.200;2023-02-11T00:03:18;35.60;;;15.77;;
8007;SDS011;4049;49.468;11.200;2023-02-11T00:05:45;36.57;;;17.23;;
8007;SDS011;4049;49.468;11.200;2023-02-11T00:08:23;36.93;;;16.53;;
8007;SDS011;4049;49.468;11.200;2023-02-11T00:10:51;39.37;;;16.23;;
8007;SDS011;4049;49.468;11.200;2023-02-11T00:13:18;36.27;;;16.83;;
8007;SDS011;4049;49.468;11.200;2023-02-11T00:15:45;37.33;;;17.10;;
8007;SDS011;4049;49.468;11.200;2023-02-11T00:18:11;36.20;;;17.17;;
8007;SDS011;4049;49.468;11.200;2023-02-11T00:20:38;37.00;;;16.50;;
8007;SDS011;4049;49.468;11.200;2023-02-11T00:23:05;38.40;;;16.33;;
8007;SDS011;4049;49.468;11.200;2023-02-11T00:25:37;35.83;;;16.33;;
8007;SDS011;4049;49.468;11.200;2023-02-11T00:28:04;33.00;;;16.50;;
8007;SDS011;4049;49.468;11.200;2023-02-11T00:30:31;35.70;;;16.23;;
8007;SDS011;4049;49.468;11.200;2023-02-11T00:32:57;36.27;;;15.93;;
8007;SDS011;4049;49.468;11.200;2023-02-11T00:35:24;38.90;;;16.70;;
8007;SDS011;4049;49.468;11.200;2023-02-11T00:37:51;36.27;;;15.73;;
8007;SDS011;4049;49.468;11.200;2023-02-11T00:40:18;37.67;;;15.70;;
8007;SDS011;4049;49.468;11.200;2023-02-11T00:42:47;36.17;;;16.97;;
8007;SDS011;4049;49.468;11.200;2023-02-11T00:45:14;38.60;;;17.53;;
8007;SDS011;4049;49.468;11.200;2023-02-11T00:47:40;37.77;;;18.10;;
8007;SDS011;4049;49.468;11.200;2023-02-11T00:50:07;45.60;;;20.00;;
8007;SDS011;4049;49.468;11.200;2023-02-11T00:52:34;39.57;;;18.03;;
8007;SDS011;4049;49.468;11.200;2023-02-11T00:55:01;36.80;;;17.07;;
8007;SDS011;4049;49.468;11.200;2023-02-11T00:57:28;37.10;;;17.43;;
8007;SDS011;4049;49.468;11.200;2023-02-11T00:59:56;44.20;;;18.23;;
8007;SDS011;4049;49.468;11.200;2023-02-11T01:02:23;45.03;;;18.73;;
8007;SDS011;4049;49.468;11.200;2023-02-11T01:04:50;39.17;;;18.60;;
8007;SDS011;4049;49.468;11.200;2023-02-11T01:07:16;37.07;;;18.33;;
8007;SDS011;4049;49.468;11.200;2023-02-11T01:09:43;40.47;;;17.70;;
8007;SDS011;4049;49.468;11.200;2023-02-11T01:12:10;45.60;;;19.07;;
8007;SDS011;4049;49.468;11.200;2023-02-11T01:14:37;47.03;;;19.70;;
8007;SDS011;4049;49.468;11.200;2023-02-11T01:17:05;41.60;;;18.20;;
8007;SDS011;4049;49.468;11.200;2023-02-11T01:19:32;34.17;;;16.83;;
8007;SDS011;4049;49.468;11.200;2023-02-11T01:21:59;40.80;;;18.47;;
8007;SDS011;4049;49.468;11.200;2023-02-11T01:24:25;39.93;;;18.27;;
8007;SDS011;4049;49.468;11.200;2023-02-11T01:26:52;42.03;;;18.93;;
8007;SDS011;4049;49.468;11.200;2023-02-11T01:29:19;40.33;;;17.97;;
8007;SDS011;4049;49.468;11.200;2023-02-11T01:31:46;41.20;;;19.43;;
8007;SDS011;4049;49.468;11.200;2023-02-11T01:34:15;35.20;;;16.53;;
8007;SDS011;4049;49.468;11.200;2023-02-11T01:36:42;45.30;;;17.97;;
8007;SDS011;4049;49.468;11.200;2023-02-11T01:39:09;44.73;;;19.17;;
8007;SDS011;4049;49.468;11.200;2023-02-11T01:41:36;40.80;;;19.17;;
8007;SDS011;4049;49.468;11.200;2023-02-11T01:44:22;41.37;;;18.00;;
8007;SDS011;4049;49.468;11.200;2023-02-11T01:46:51;39.30;;;17.83;;
8007;SDS011;4049;49.468;11.200;2023-02-11T01:49:20;46.60;;;19.57;;
8007;SDS011;4049;49.468;11.200;2023-02-11T01:51:50;39.30;;;18.63;;
8007;SDS011;4049;49.468;11.200;2023-02-11T01:54:22;48.10;;;19.73;;
8007;SDS011;4049;49.468;11.200;2023-02-11T01:57:09;39.30;;;18.27;;
8007;SDS011;4049;49.468;11.200;2023-02-11T02:00:00;39.40;;;18.27;;
8007;SDS011;4049;49.468;11.200;2023-02-11T02:02:36;40.07;;;18.43;;
8007;SDS011;4049;49.468;11.200;2023-02-11T02:05:13;42.60;;;19.90;;
8007;SDS011;4049;49.468;11.200;2023-02-11T02:07:45;38.07;;;19.47;;
8007;SDS011;4049;49.468;11.200;2023-02-11T02:10:22;41.97;;;18.10;;
8007;SDS011;4049;49.468;11.200;2023-02-11T02:12:50;44.47;;;20.40;;
8007;SDS011;4049;49.468;11.200;2023-02-11T02:15:19;40.23;;;18.27;;
8007;SDS011;4049;49.468;11.200;2023-02-11T02:17:50;42.03;;;17.63;;
8007;SDS011;4049;49.468;11.200;2023-02-11T02:20:29;38.77;;;17.90;;
8007;SDS011;4049;49.468;11.200;2023-02-11T02:23:27;44.47;;;18.47;;
8007;SDS011;4049;49.468;11.200;2023-02-11T02:29:18;42.43;;;17.93;;
8007;SDS011;4049;49.468;11.200;2023-02-11T02:32:13;45.43;;;18.93;;
8007;SDS011;4049;49.468;11.200;2023-02-11T02:34:48;43.50;;;19.67;;
8007;SDS011;4049;49.468;11.200;2023-02-11T02:37:18;45.97;;;20.47;;
8007;SDS011;4049;49.468;11.200;2023-02-11T02:39:49;40.60;;;18.50;;
8007;SDS011;4049;49.468;11.200;2023-02-11T02:42:16;46.50;;;19.03;;
8007;SDS011;4049;49.468;11.200;2023-02-11T02:44:46;48.03;;;19.17;;
8007;SDS011;4049;49.468;11.200;2023-02-11T02:47:15;42.37;;;19.23;;
8007;SDS011;4049;49.468;11.200;2023-02-11T02:49:42;42.53;;;19.83;;
8007;SDS011;4049;49.468;11.200;2023-02-11T02:52:13;36.63;;;18.73;;
8007;SDS011;4049;49.468;11.200;2023-02-11T02:54:51;41.60;;;18.87;;
8007;SDS011;4049;49.468;11.200;2023-02-11T02:57:44;34.27;;;16.43;;
8007;SDS011;4049;49.468;11.200;2023-02-11T03:00:26;43.60;;;18.77;;
8007;SDS011;4049;49.468;11.200;2023-02-11T03:03:02;43.60;;;18.60;;
8007;SDS011;4049;49.468;11.200;2023-02-11T03:05:42;39.73;;;18.13;;
8007;SDS011;4049;49.468;11.200;2023-02-11T03:08:16;38.60;;;18.27;;
8007;SDS011;4049;49.468;11.200;2023-02-11T03:10:50;42.47;;;17.43;;
8007;SDS011;4049;49.468;11.200;2023-02-11T03:13:19;43.03;;;19.53;;
8007;SDS011;4049;49.468;11.200;2023-02-11T03:15:50;41.27;;;19.27;;
8007;SDS011;4049;49.468;11.200;2023-02-11T03:18:21;44.30;;;19.90;;
8007;SDS011;4049;49.468;11.200;2023-02-11T03:20:51;45.50;;;19.77;;
8007;SDS011;4049;49.468;11.200;2023-02-11T03:23:20;42.97;;;18.97;;
8007;SDS011;4049;49.468;11.200;2023-02-11T03:25:53;44.13;;;20.57;;
8007;SDS011;4049;49.468;11.200;2023-02-11T03:28:27;43.27;;;19.07;;
8007;SDS011;4049;49.468;11.200;2023-02-11T03:30:59;43.77;;;20.33;;
8007;SDS011;4049;49.468;11.200;2023-02-11T03:33:37;40.33;;;18.77;;
8007;SDS011;4049;49.468;11.200;2023-02-11T03:36:12;43.17;;;18.60;;
8007;SDS011;4049;49.468;11.200;2023-02-11T03:38:45;47.73;;;20.03;;
8007;SDS011;4049;49.468;11.200;2023-02-11T03:41:15;50.60;;;20.57;;
8007;SDS011;4049;49.468;11.200;2023-02-11T03:43:45;50.03;;;20.57;;
8007;SDS011;4049;49.468;11.200;2023-02-11T03:46:18;44.03;;;19.97;;
8007;SDS011;4049;49.468;11.200;2023-02-11T03:48:50;50.13;;;20.33;;
8007;SDS011;4049;49.468;11.200;2023-02-11T03:51:21;45.80;;;20.30;;
8007;SDS011;4049;49.468;11.200;2023-02-11T03:53:51;44.13;;;20.80;;
8007;SDS011;4049;49.468;11.200;2023-02-11T03:56:23;43.57;;;18.77;;
8007;SDS011;4049;49.468;11.200;2023-02-11T03:58:54;39.97;;;18.30;;
8007;SDS011;4049;49.468;11.200;2023-02-11T04:01:21;44.37;;;17.97;;
8007;SDS011;4049;49.468;11.200;2023-02-11T04:03:49;40.63;;;19.50;;
8007;SDS011;4049;49.468;11.200;2023-02-11T04:06:16;39.70;;;19.10;;
8007;SDS011;4049;49.468;11.200;2023-02-11T04:08:43;43.27;;;18.47;;
8007;SDS011;4049;49.468;11.200;2023-02-11T04:11:09;44.10;;;19.97;;
8007;SDS011;4049;49.468;11.200;2023-02-11T04:13:36;37.37;;;17.13;;
8007;SDS011;4049;49.468;11.200;2023-02-11T04:16:03;43.13;;;17.13;;
8007;SDS011;4049;49.468;11.200;2023-02-11T04:18:30;40.30;;;18.07;;
8007;SDS011;4049;49.468;11.200;2023-02-11T04:20:58;38.90;;;17.73;;
8007;SDS011;4049;49.468;11.200;2023-02-11T04:23:25;43.03;;;19.03;;
8007;SDS011;4049;49.468;11.200;2023-02-11T04:25:52;37.83;;;17.87;;
8007;SDS011;4049;49.468;11.200;2023-02-11T04:28:19;40.40;;;17.90;;
8007;SDS011;4049;49.468;11.200;2023-02-11T04:30:45;41.10;;;18.37;;
8007;SDS011;4049;49.468;11.200;2023-02-11T04:33:14;38.30;;;18.10;;
8007;SDS011;4049;49.468;11.200;2023-02-11T04:35:41;37.63;;;16.80;;
8007;SDS011;4049;49.468;11.200;2023-02-11T04:38:09;37.10;;;17.53;;
8007;SDS011;4049;49.468;11.200;2023-02-11T04:40:36;37.20;;;16.97;;
8007;SDS011;4049;49.468;11.200;2023-02-11T04:43:02;38.23;;;16.10;;
8007;SDS011;4049;49.468;11.200;2023-02-11T04:45:29;40.10;;;17.00;;
8007;SDS011;4049;49.468;11.200;2023-02-11T04:47:56;34.73;;;17.27;;
8007;SDS011;4049;49.468;11.200;2023-02-11T04:50:23;34.30;;;16.07;;
8007;SDS011;4049;49.468;11.200;2023-02-11T04:52:50;39.47;;;17.63;;
8007;SDS011;4049;49.468;11.200;2023-02-11T04:55:18;40.40;;;17.67;;
8007;SDS011;4049;49.468;11.200;2023-02-11T04:57:45;39.33;;;16.33;;
8007;SDS011;4049;49.468;11.200;2023-02-11T05:00:12;36.93;;;16.67;;
8007;SDS011;4049;49.468;11.200;2023-02-11T05:02:39;33.30;;;17.47;;
8007;SDS011;4049;49.468;11.200;2023-02-11T05:05:06;36.77;;;16.83;;
8007;SDS011;4049;49.468;11.200;2023-02-11T05:07:33;32.63;;;15.53;;
8007;SDS011;4049;49.468;11.200;2023-02-11T05:10:00;38.30;;;17.13;;
8007;SDS011;4049;49.468;11.200;2023-02-11T05:12:28;38.97;;;17.50;;
8007;SDS011;4049;49.468;11.200;2023-02-11T05:14:55;38.20;;;16.47;;
8007;SDS011;4049;49.468;11.200;2023-02-11T05:17:22;39.13;;;17.87;;
8007;SDS011;4049;49.468;11.200;2023-02-11T05:19:49;40.70;;;18.53;;
8007;SDS011;4049;49.468;11.200;2023-02-11T05:22:15;40.33;;;17.90;;
8007;SDS011;4049;49.468;11.200;2023-02-11T05:24:42;38.30;;;18.53;;
8007;SDS011;4049;49.468;11.200;2023-02-11T05:27:09;39.87;;;17.37;;
8007;SDS011;4049;49.468;11.200;2023-02-11T05:29:37;45.10;;;17.90;;
8007;SDS011;4049;49.468;11.200;2023-02-11T05:32:04;37.60;;;18.10;;
8007;SDS011;4049;49.468;11.200;2023-02-11T05:34:31;40.17;;;19.27;;
8007;SDS011;4049;49.468;11.200;2023-02-11T05:36:58;38.80;;;18.53;;
8007;SDS011;4049;49.468;11.200;2023-02-11T05:39:25;35.97;;;17.63;;
8007;SDS011;4049;49.468;11.200;2023-02-11T05:41:51;40.93;;;17.40;;
8007;SDS011;4049;49.468;11.200;2023-02-11T05:44:18;31.87;;;16.60;;
8007;SDS011;4049;49.468;11.200;2023-02-11T05:46:46;39.80;;;15.87;;
8007;SDS011;4049;49.468;11.200;2023-02-11T05:49:14;30.10;;;15.70;;
8007;SDS011;4049;49.468;11.200;2023-02-11T05:51:41;41.07;;;17.50;;
8007;SDS011;4049;49.468;11.200;2023-02-11T05:54:08;33.27;;;16.03;;
8007;SDS011;4049;49.468;11.200;2023-02-11T05:56:35;35.20;;;16.53;;
8007;SDS011;4049;49.468;11.200;2023-02-11T05:59:02;32.20;;;14.87;;
8007;SDS011;4049;49.468;11.200;2023-02-11T06:01:32;33.93;;;16.40;;
8007;SDS011;4049;49.468;11.200;2023-02-11T06:04:01;33.00;;;16.53;;
8007;SDS011;4049;49.468;11.200;2023-02-11T06:06:27;35.10;;;15.70;;
8007;SDS011;4049;49.468;11.200;2023-02-11T06:08:54;38.17;;;16.37;;
8007;SDS011;4049;49.468;11.200;2023-02-11T06:11:21;33.13;;;15.77;;
8007;SDS011;4049;49.468;11.200;2023-02-11T06:13:48;33.90;;;16.13;;
8007;SDS011;4049;49.468;11.200;2023-02-11T06:16:16;32.53;;;15.07;;
8007;SDS011;4049;49.468;11.200;2023-02-11T06:18:43;31.37;;;15.17;;
8007;SDS011;4049;49.468;11.200;2023-02-11T06:21:11;34.93;;;16.57;;
8007;SDS011;4049;49.468;11.200;2023-02-11T06:23:38;40.57;;;16.90;;
8007;SDS011;4049;49.468;11.200;2023-02-11T06:26:05;34.40;;;15.20;;
8007;SDS011;4049;49.468;11.200;2023-02-11T06:28:33;36.17;;;15.70;;
8007;SDS011;4049;49.468;11.200;2023-02-11T06:31:03;34.57;;;15.80;;
8007;SDS011;4049;49.468;11.200;2023-02-11T06:33:31;33.87;;;15.10;;
8007;SDS011;4049;49.468;11.200;2023-02-11T06:35:58;31.63;;;16.13;;
8007;SDS011;4049;49.468;11.200;2023-02-11T06:38:26;38.30;;;15.83;;
8007;SDS011;4049;49.468;11.200;2023-02-11T06:40:53;37.33;;;16.53;;
8007;SDS011;4049;49.468;11.200;2023-02-11T06:43:20;27.63;;;14.53;;
8007;SDS011;4049;49.468;11.200;2023-02-11T06:45:51;28.37;;;14.93;;
8007;SDS011;4049;49.468;11.200;2023-02-11T06:48:19;29.83;;;14.50;;
8007;SDS011;4049;49.468;11.200;2023-02-11T06:50:46;31.40;;;15.03;;
8007;SDS011;4049;49.468;11.200;2023-02-11T06:53:13;29.07;;;13.90;;
8007;SDS011;4049;49.468;11.200;2023-02-11T06:55:41;32.40;;;14.77;;
8007;SDS011;4049;49.468;11.200;2023-02-11T06:58:08;34.80;;;15.40;;
8007;SDS011;4049;49.468;11.200;2023-02-11T07:00:35;33.00;;;15.37;;
8007;SDS011;4049;49.468;11.200;2023-02-11T07:03:02;42.23;;;17.67;;
8007;SDS011;4049;49.468;11.200;2023-02-11T07:05:29;38.23;;;17.53;;
8007;SDS011;4049;49.468;11.200;2023-02-11T07:07:58;37.70;;;18.00;;
8007;SDS011;4049;49.468;11.200;2023-02-11T07:10:25;41.40;;;18.63;;
8007;SDS011;4049;49.468;11.200;2023-02-11T07:12:53;44.00;;;19.60;;
8007;SDS011;4049;49.468;11.200;2023-02-11T07:15:20;44.43;;;19.53;;
8007;SDS011;4049;49.468;11.200;2023-02-11T07:17:47;35.17;;;18.37;;
8007;SDS011;4049;49.468;11.200;2023-02-11T07:20:14;37.87;;;18.10;;
8007;SDS011;4049;49.468;11.200;2023-02-11T07:22:42;44.33;;;18.33;;
8007;SDS011;4049;49.468;11.200;2023-02-11T07:25:09;43.30;;;19.00;;
8007;SDS011;4049;49.468;11.200;2023-02-11T07:27:35;46.13;;;21.37;;
8007;SDS011;4049;49.468;11.200;2023-02-11T07:30:04;46.73;;;20.67;;
8007;SDS011;4049;49.468;11.200;2023-02-11T07:32:31;47.80;;;20.60;;
8007;SDS011;4049;49.468;11.200;2023-02-11T07:34:58;49.50;;;21.00;;
8007;SDS011;4049;49.468;11.200;2023-02-11T07:37:25;42.40;;;19.40;;
8007;SDS011;4049;49.468;11.200;2023-02-11T07:39:52;41.43;;;18.17;;
8007;SDS011;4049;49.468;11.200;2023-02-11T07:42:19;37.17;;;17.43;;
8007;SDS011;4049;49.468;11.200;2023-02-11T07:44:45;35.70;;;16.70;;
8007;SDS011;4049;49.468;11.200;2023-02-11T07:47:14;36.83;;;16.67;;
8007;SDS011;4049;49.468;11.200;2023-02-11T07:49:41;26.40;;;13.97;;
8007;SDS011;4049;49.468;11.200;2023-02-11T07:52:08;31.77;;;15.03;;
8007;SDS011;4049;49.468;11.200;2023-02-11T07:54:34;30.67;;;15.33;;
8007;SDS011;4049;49.468;11.200;2023-02-11T07:57:01;30.30;;;13.80;;
8007;SDS011;4049;49.468;11.200;2023-02-11T07:59:28;28.90;;;14.17;;
8007;SDS011;4049;49.468;11.200;2023-02-11T08:01:55;30.90;;;14.33;;
8007;SDS011;4049;49.468;11.200;2023-02-11T08:04:23;24.97;;;14.13;;
8007;SDS011;4049;49.468;11.200;2023-02-11T08:06:50;30.30;;;13.53;;
8007;SDS011;4049;49.468;11.200;2023-02-11T08:09:18;27.97;;;14.30;;
8007;SDS011;4049;49.468;11.200;2023-02-11T08:11:45;26.33;;;13.07;;
8007;SDS011;4049;49.468;11.200;2023-02-11T08:14:12;33.10;;;16.13;;
8007;SDS011;4049;49.468;11.200;2023-02-11T08:16:39;41.80;;;18.17;;
8007;SDS011;4049;49.468;11.200;2023-02-11T08:19:06;34.20;;;17.33;;
8007;SDS011;4049;49.468;11.200;2023-02-11T08:21:37;36.37;;;17.13;;
8007;SDS011;4049;49.468;11.200;2023-02-11T08:24:05;36.57;;;18.03;;
8007;SDS011;4049;49.468;11.200;2023-02-11T08:26:32;44.37;;;19.20;;
8007;SDS011;4049;49.468;11.200;2023-02-11T08:29:00;35.60;;;18.33;;
8007;SDS011;4049;49.468;11.200;2023-02-11T08:31:29;39.10;;;17.77;;
8007;SDS011;4049;49.468;11.200;2023-02-11T08:33:58;39.63;;;18.07;;
8007;SDS011;4049;49.468;11.200;2023-02-11T08:36:27;36.97;;;18.40;;
8007;SDS011;4049;49.468;11.200;2023-02-11T08:38:57;35.27;;;17.27;;
8007;SDS011;4049;49.468;11.200;2023-02-11T08:41:27;43.00;;;17.63;;
8007;SDS011;4049;49.468;11.200;2023-02-11T08:43:54;34.03;;;17.97;;
8007;SDS011;4049;49.468;11.200;2023-02-11T08:46:21;37.07;;;19.07;;
8007;SDS011;4049;49.468;11.200;2023-02-11T08:48:48;34.70;;;18.80;;
8007;SDS011;4049;49.468;11.200;2023-02-11T08:51:16;36.47;;;19.20;;
8007;SDS011;4049;49.468;11.200;2023-02-11T08:53:45;42.17;;;19.40;;
8007;SDS011;4049;49.468;11.200;2023-02-11T08:56:14;43.93;;;20.27;;
8007;SDS011;4049;49.468;11.200;2023-02-11T08:58:41;45.37;;;22.87;;
8007;SDS011;4049;49.468;11.200;2023-02-11T09:01:08;43.67;;;21.80;;
8007;SDS011;4049;49.468;11.200;2023-02-11T09:03:36;42.50;;;20.27;;
8007;SDS011;4049;49.468;11.200;2023-02-11T09:06:03;38.23;;;18.67;;
8007;SDS011;4049;49.468;11.200;2023-02-11T09:08:32;34.43;;;18.43;;
8007;SDS011;4049;49.468;11.200;2023-02-11T09:11:00;33.67;;;15.70;;
8007;SDS011;4049;49.468;11.200;2023-02-11T09:13:29;26.20;;;12.40;;
8007;SDS011;4049;49.468;11.200;2023-02-11T09:15:56;25.77;;;13.17;;
8007;SDS011;4049;49.468;11.200;2023-02-11T09:18:23;24.77;;;11.67;;
8007;SDS011;4049;49.468;11.200;2023-02-11T09:20:50;20.87;;;11.07;;
8007;SDS011;4049;49.468;11.200;2023-02-11T09:23:17;28.90;;;11.87;;
8007;SDS011;4049;49.468;11.200;2023-02-11T09:25:44;23.47;;;11.33;;
8007;SDS011;4049;49.468;11.200;2023-02-11T09:28:10;20.77;;;11.13;;
8007;SDS011;4049;49.468;11.200;2023-02-11T09:30:39;21.60;;;10.27;;
8007;SDS011;4049;49.468;11.200;2023-02-11T09:33:05;22.97;;;11.73;;
8007;SDS011;4049;49.468;11.200;2023-02-11T09:35:32;21.40;;;11.03;;
8007;SDS011;4049;49.468;11.200;2023-02-11T09:37:59;22.13;;;10.83;;
8007;SDS011;4049;49.468;11.200;2023-02-11T09:40:26;23.87;;;12.10;;
8007;SDS011;4049;49.468;11.200;2023-02-11T09:42:55;18.90;;;11.53;;
8007;SDS011;4049;49.468;11.200;2023-02-11T09:45:26;21.13;;;11.00;;
8007;SDS011;4049;49.468;11.200;2023-02-11T09:47:56;23.33;;;10.73;;
8007;SDS011;4049;49.468;11.200;2023-02-11T09:50:27;23.43;;;10.87;;
8007;SDS011;4049;49.468;11.200;2023-02-11T09:52:59;20.27;;;10.97;;
8007;SDS011;4049;49.468;11.200;2023-02-11T09:55:29;18.53;;;10.87;;
8007;SDS011;4049;49.468;11.200;2023-02-11T09:58:01;21.27;;;11.30;;
8007;SDS011;4049;49.468;11.200;2023-02-11T10:00:31;17.93;;;10.47;;
8007;SDS011;4049;49.468;11.200;2023-02-11T10:03:12;20.80;;;10.83;;
8007;SDS011;4049;49.468;11.200;2023-02-11T10:08:46;19.13;;;10.30;;
8007;SDS011;4049;49.468;11.200;2023-02-11T10:11:22;20.20;;;11.00;;
8007;SDS011;4049;49.468;11.200;2023-02-11T10:13:56;22.97;;;11.27;;
8007;SDS011;4049;49.468;11.200;2023-02-11T10:16:33;21.43;;;11.27;;
8007;SDS011;4049;49.468;11.200;2023-02-11T10:19:19;22.60;;;10.80;;
8007;SDS011;4049;49.468;11.200;2023-02-11T10:21:58;22.67;;;10.37;;
8007;SDS011;4049;49.468;11.200;2023-02-11T10:24:33;20.10;;;10.77;;
8007;SDS011;4049;49.468;11.200;2023-02-11T10:27:01;22.10;;;10.53;;
8007;SDS011;4049;49.468;11.200;2023-02-11T10:29:39;22.60;;;11.10;;
8007;SDS011;4049;49.468;11.200;2023-02-11T10:32:12;22.33;;;11.83;;
8007;SDS011;4049;49.468;11.200;2023-02-11T10:34:49;20.67;;;11.53;;
8007;SDS011;4049;49.468;11.200;2023-02-11T10:37:19;21.47;;;10.93;;
8007;SDS011;4049;49.468;11.200;2023-02-11T10:39:46;21.43;;;9.83;;
8007;SDS011;4049;49.468;11.200;2023-02-11T10:42:16;24.17;;;11.47;;
8007;SDS011;4049;49.468;11.200;2023-02-11T10:44:52;18.83;;;10.03;;
8007;SDS011;4049;49.468;11.200;2023-02-11T10:47:23;22.23;;;10.87;;
8007;SDS011;4049;49.468;11.200;2023-02-11T10:49:53;24.37;;;11.67;;
8007;SDS011;4049;49.468;11.200;2023-02-11T10:52:29;21.13;;;10.80;;
8007;SDS011;4049;49.468;11.200;2023-02-11T10:54:57;22.53;;;12.13;;
8007;SDS011;4049;49.468;11.200;2023-02-11T10:57:27;20.27;;;10.80;;
8007;SDS011;4049;49.468;11.200;2023-02-11T10:59:59;23.53;;;11.73;;
8007;SDS011;4049;49.468;11.200;2023-02-11T11:02:34;21.93;;;11.43;;
8007;SDS011;4049;49.468;11.200;2023-02-11T11:05:15;21.30;;;11.20;;
8007;SDS011;4049;49.468;11.200;2023-02-11T11:07:50;21.20;;;11.03;;
8007;SDS011;4049;49.468;11.200;2023-02-11T11:10:27;24.63;;;12.03;;
8007;SDS011;4049;49.468;11.200;2023-02-11T11:13:01;20.00;;;11.30;;
8007;SDS011;4049;49.468;11.200;2023-02-11T11:15:29;21.77;;;11.80;;
8007;SDS011;4049;49.468;11.200;2023-02-11T11:18:10;22.67;;;12.37;;
8007;SDS011;4049;49.468;11.200;2023-02-11T11:20:43;23.30;;;11.90;;
8007;SDS011;4049;49.468;11.200;2023-02-11T11:23:21;21.97;;;11.67;;
8007;SDS011;4049;49.468;11.200;2023-02-11T11:25:57;23.57;;;11.93;;
8007;SDS011;4049;49.468;11.200;2023-02-11T11:28:28;24.13;;;11.70;;
8007;SDS011;4049;49.468;11.200;2023-02-11T11:30:57;24.03;;;11.77;;
8007;SDS011;4049;49.468;11.200;2023-02-11T11:33:26;23.90;;;12.60;;
8007;SDS011;4049;49.468;11.200;2023-02-11T11:36:00;22.63;;;12.13;;
8007;SDS011;4049;49.468;11.200;2023-02-11T11:38:29;24.70;;;11.83;;
8007;SDS011;4049;49.468;11.200;2023-02-11T11:41:14;27.10;;;12.40;;
8007;SDS011;4049;49.468;11.200;2023-02-11T11:43:57;22.97;;;12.87;;
8007;SDS011;4049;49.468;11.200;2023-02-11T11:46:27;24.63;;;12.37;;
8007;SDS011;4049;49.468;11.200;2023-02-11T11:49:01;25.50;;;12.60;;
8007;SDS011;4049;49.468;11.200;2023-02-11T11:51:53;22.17;;;12.13;;
8007;SDS011;4049;49.468;11.200;2023-02-11T11:54:25;27.17;;;13.03;;
8007;SDS011;4049;49.468;11.200;2023-02-11T11:56:56;26.60;;;14.23;;
8007;SDS011;4049;49.468;11.200;2023-02-11T11:59:26;25.60;;;13.43;;
8007;SDS011;4049;49.468;11.200;2023-02-11T12:01:58;29.63;;;13.67;;
8007;SDS011;4049;49.468;11.200;2023-02-11T12:04:40;27.10;;;12.93;;
8007;SDS011;4049;49.468;11.200;2023-02-11T12:07:24;26.37;;;12.47;;
8007;SDS011;4049;49.468;11.200;2023-02-11T12:13:03;25.37;;;13.30;;
8007;SDS011;4049;49.468;11.200;2023-02-11T12:15:42;23.47;;;11.97;;
8007;SDS011;4049;49.468;11.200;2023-02-11T12:18:24;27.33;;;12.37;;
8007;SDS011;4049;49.468;11.200;2023-02-11T12:21:07;25.90;;;13.37;;
8007;SDS011;4049;49.468;11.200;2023-02-11T12:23:54;21.67;;;11.73;;
8007;SDS011;4049;49.468;11.200;2023-02-11T12:26:32;22.63;;;12.20;;
8007;SDS011;4049;49.468;11.200;2023-02-11T12:29:07;23.97;;;12.27;;
8007;SDS011;4049;49.468;11.200;2023-02-11T12:31:43;25.50;;;13.53;;
8007;SDS011;4049;49.468;11.200;2023-02-11T12:34:26;25.33;;;13.50;;
8007;SDS011;4049;49.468;11.200;2023-02-11T12:37:13;26.40;;;12.37;;
8007;SDS011;4049;49.468;11.200;2023-02-11T12:39:50;26.17;;;13.27;;
8007;SDS011;4049;49.468;11.200;2023-02-11T12:42:32;25.40;;;12.90;;
8007;SDS011;4049;49.468;11.200;2023-02-11T12:45:30;24.20;;;12.97;;
8007;SDS011;4049;49.468;11.200;2023-02-11T12:48:12;30.83;;;12.97;;
8007;SDS011;4049;49.468;11.200;2023-02-11T12:50:49;24.43;;;12.57;;
8007;SDS011;4049;49.468;11.200;2023-02-11T12:53:30;22.03;;;12.43;;
8007;SDS011;4049;49.468;11.200;2023-02-11T12:56:16;25.83;;;13.27;;
8007;SDS011;4049;49.468;11.200;2023-02-11T12:58:49;25.07;;;13.43;;
8007;SDS011;4049;49.468;11.200;2023-02-11T13:01:19;31.40;;;15.33;;
8007;SDS011;4049;49.468;11.200;2023-02-11T13:03:52;27.57;;;15.37;;
8007;SDS011;4049;49.468;11.200;2023-02-11T13:06:23;33.23;;;16.47;;
8007;SDS011;4049;49.468;11.200;2023-02-11T13:08:54;31.87;;;15.73;;
8007;SDS011;4049;49.468;11.200;2023-02-11T13:11:27;28.40;;;15.07;;
8007;SDS011;4049;49.468;11.200;2023-02-11T13:13:59;27.20;;;13.90;;
8007;SDS011;4049;49.468;11.200;2023-02-11T13:16:32;25.13;;;12.90;;
8007;SDS011;4049;49.468;11.200;2023-02-11T13:19:02;26.87;;;14.13;;
8007;SDS011;4049;49.468;11.200;2023-02-11T13:24:29;25.77;;;12.80;;
8007;SDS011;4049;49.468;11.200;2023-02-11T13:27:06;24.27;;;13.67;;
8007;SDS011;4049;49.468;11.200;2023-02-11T13:29:39;29.43;;;14.47;;
8007;SDS011;4049;49.468;11.200;2023-02-11T13:35:38;26.30;;;14.97;;
8007;SDS011;4049;49.468;11.200;2023-02-11T13:38:16;29.70;;;14.60;;
8007;SDS011;4049;49.468;11.200;2023-02-11T13:40:49;25.03;;;13.50;;
8007;SDS011;4049;49.468;11.200;2023-02-11T13:43:27;23.83;;;12.93;;
8007;SDS011;4049;49.468;11.200;2023-02-11T13:45:56;29.90;;;13.33;;
8007;SDS011;4049;49.468;11.200;2023-02-11T13:48:25;28.90;;;13.87;;
8007;SDS011;4049;49.468;11.200;2023-02-11T13:50:56;26.17;;;14.30;;
8007;SDS011;4049;49.468;11.200;2023-02-11T13:53:24;24.17;;;12.07;;
8007;SDS011;4049;49.468;11.200;2023-02-11T13:55:59;25.50;;;12.87;;
8007;SDS011;4049;49.468;11.200;2023-02-11T13:58:34;28.30;;;13.97;;
8007;SDS011;4049;49.468;11.200;2023-02-11T14:01:04;28.83;;;14.47;;
8007;SDS011;4049;49.468;11.200;2023-02-11T14:03:36;22.70;;;12.60;;
8007;SDS011;4049;49.468;11.200;2023-02-11T14:06:22;24.20;;;12.73;;
8007;SDS011;4049;49.468;11.200;2023-02-11T14:12:29;23.53;;;11.50;;
8007;SDS011;4049;49.468;11.200;2023-02-11T14:15:00;22.83;;;11.77;;
8007;SDS011;4049;49.468;11.200;2023-02-11T14:17:43;21.97;;;12.27;;
8007;SDS011;4049;49.468;11.200;2023-02-11T14:22:59;25.83;;;11.43;;
8007;SDS011;4049;49.468;11.200;2023-02-11T14:25:26;24.13;;;12.70;;
8007;SDS011;4049;49.468;11.200;2023-02-11T14:27:54;28.33;;;13.70;;
8007;SDS011;4049;49.468;11.200;2023-02-11T14:30:31;22.57;;;11.63;;
8007;SDS011;4049;49.468;11.200;2023-02-11T14:33:16;21.83;;;10.97;;
8007;SDS011;4049;49.468;11.200;2023-02-11T14:36:04;21.40;;;11.20;;
8007;SDS011;4049;49.468;11.200;2023-02-11T14:38:47;21.50;;;11.80;;
8007;SDS011;4049;49.468;11.200;2023-02-11T14:41:21;23.43;;;11.57;;
8007;SDS011;4049;49.468;11.200;2023-02-11T14:43:50;22.70;;;11.90;;
8007;SDS011;4049;49.468;11.200;2023-02-11T14:46:21;20.87;;;12.07;;
8007;SDS011;4049;49.468;11.200;2023-02-11T14:48:50;27.60;;;13.93;;
8007;SDS011;4049;49.468;11.200;2023-02-11T14:51:19;27.27;;;12.97;;
8007;SDS011;4049;49.468;11.200;2023-02-11T14:53:50;24.33;;;12.80;;
8007;SDS011;4049;49.468;11.200;2023-02-11T14:56:20;20.03;;;11.03;;
8007;SDS011;4049;49.468;11.200;2023-02-11T14:58:51;22.33;;;11.20;;
8007;SDS011;4049;49.468;11.200;2023-02-11T15:01:24;19.97;;;11.00;;
8007;SDS011;4049;49.468;11.200;2023-02-11T15:03:54;23.33;;;11.53;;
8007;SDS011;4049;49.468;11.200;2023-02-11T15:06:23;21.97;;;12.20;;
8007;SDS011;4049;49.468;11.200;2023-02-11T15:08:53;22.70;;;11.40;;
8007;SDS011;4049;49.468;11.200;2023-02-11T15:11:25;23.47;;;11.57;;
8007;SDS011;4049;49.468;11.200;2023-02-11T15:13:53;22.23;;;11.93;;
8007;SDS011;4049;49.468;11.200;2023-02-11T15:16:25;22.07;;;11.97;;